Time;durP1;ratioP1;P1;durP2;ratioP2;P2;SDS_P1;SDS_P2;PMS_P1;PMS_P2;Temp;Humidity;BMP_temperature;BMP_pressure;BME280_temperature;BME280_humidity;BME280_pressure;Samples;Min_cycle;Max_cycle;Signal;HPM_P1;HPM_P2
2023/07/18 00:01:00;;;;;;;12.65;6.70;;;12.20;99.90;;;;;;5073964;28;20085;-69
2023/07/18 00:03:28;;;;;;;13.48;6.85;;;12.10;99.90;;;;;;5074253;28;20032;-69
2023/07/18 00:05:54;;;;;;;10.90;7.07;;;12.20;99.90;;;;;;5074255;28;20021;-69
2023/07/18 00:08:20;;;;;;;14.52;6.75;;;12.20;99.90;;;;;;5073728;28;20025;-69
2023/07/18 00:10:45;;;;;;;12.13;6.65;;;12.10;99.90;;;;;;5073747;28;20075;-69
2023/07/18 00:13:11;;;;;;;10.68;6.75;;;12.10;99.90;;;;;;5073583;28;20363;-69
2023/07/18 00:15:37;;;;;;;11.20;7.53;;;12.10;99.90;;;;;;5073938;28;20051;-69
2023/07/18 00:18:03;;;;;;;12.70;7.00;;;12.10;99.90;;;;;;5073528;28;20017;-69
2023/07/18 00:20:30;;;;;;;10.43;7.30;;;12.10;99.90;;;;;;5073491;28;20028;-69
2023/07/18 00:22:56;;;;;;;14.40;7.82;;;12.00;99.90;;;;;;5073935;28;20063;-69
2023/07/18 00:25:21;;;;;;;18.20;9.07;;;12.00;99.90;;;;;;5073919;28;20494;-69
2023/07/18 00:27:49;;;;;;;13.07;7.47;;;12.00;99.90;;;;;;5073935;28;20478;-69
2023/07/18 00:30:17;;;;;;;14.88;7.95;;;12.00;99.90;;;;;;5073661;28;20489;-69
2023/07/18 00:32:45;;;;;;;13.70;7.20;;;11.90;99.90;;;;;;5073486;28;20028;-69
2023/07/18 00:35:11;;;;;;;14.70;6.97;;;11.90;99.90;;;;;;5073653;28;20628;-69
2023/07/18 00:37:38;;;;;;;14.15;7.63;;;12.00;99.90;;;;;;5073304;28;20438;-69
2023/07/18 00:40:10;;;;;;;10.63;7.07;;;11.90;99.90;;;;;;5073697;28;20135;-69
2023/07/18 00:42:38;;;;;;;16.15;8.35;;;11.90;99.90;;;;;;5073606;28;20036;-69
2023/07/18 00:45:05;;;;;;;15.75;7.80;;;11.90;99.90;;;;;;5073592;28;20115;-69
2023/07/18 00:47:32;;;;;;;17.17;8.10;;;11.90;99.90;;;;;;5073541;28;20036;-69
2023/07/18 00:49:58;;;;;;;17.63;7.75;;;11.80;99.90;;;;;;5073497;28;20028;-69
2023/07/18 00:52:24;;;;;;;16.80;7.97;;;11.80;99.90;;;;;;5073554;28;20428;-69
2023/07/18 00:54:50;;;;;;;15.90;8.48;;;11.80;99.90;;;;;;5073438;28;20021;-69
2023/07/18 00:57:16;;;;;;;18.52;8.52;;;11.90;99.90;;;;;;5073481;28;20031;-69
2023/07/18 00:59:42;;;;;;;19.98;8.23;;;11.90;99.90;;;;;;5072960;28;20059;-69
2023/07/18 01:02:07;;;;;;;15.57;8.30;;;11.80;99.90;;;;;;5073444;28;20024;-69
2023/07/18 01:04:33;;;;;;;12.35;7.50;;;11.90;99.90;;;;;;5073410;28;20479;-69
2023/07/18 01:07:00;;;;;;;17.10;8.52;;;11.80;99.90;;;;;;5073430;28;20483;-69
2023/07/18 01:09:25;;;;;;;22.67;9.48;;;11.90;99.90;;;;;;5073097;28;20033;-69
2023/07/18 01:11:51;;;;;;;18.75;9.57;;;11.90;99.90;;;;;;5072820;28;20036;-69
2023/07/18 01:14:16;;;;;;;17.77;10.00;;;11.90;99.90;;;;;;5073549;28;20040;-69
2023/07/18 01:16:42;;;;;;;21.90;10.98;;;11.90;99.90;;;;;;5072812;28;20070;-69
2023/07/18 01:19:07;;;;;;;21.55;11.20;;;11.90;99.90;;;;;;5073157;28;20082;-69
2023/07/18 01:21:33;;;;;;;19.70;11.02;;;12.00;99.90;;;;;;5073064;28;20035;-69
2023/07/18 01:23:59;;;;;;;18.50;11.05;;;11.90;99.90;;;;;;5072775;28;20024;-69
2023/07/18 01:26:24;;;;;;;15.45;9.48;;;11.80;99.90;;;;;;5073229;28;20032;-69
2023/07/18 01:28:50;;;;;;;22.58;10.95;;;11.80;99.90;;;;;;5073290;28;20398;-69
2023/07/18 01:31:15;;;;;;;19.58;11.05;;;11.80;99.90;;;;;;5072724;28;20024;-69
2023/07/18 01:33:43;;;;;;;15.98;9.45;;;11.80;99.90;;;;;;5077108;28;20024;-68
2023/07/18 01:36:09;;;;;;;16.90;10.00;;;11.80;99.90;;;;;;5077165;28;20012;-69
2023/07/18 01:38:35;;;;;;;15.75;9.18;;;11.80;99.90;;;;;;5076621;28;20063;-69
2023/07/18 01:41:01;;;;;;;15.13;9.68;;;11.70;99.90;;;;;;5077061;28;20071;-69
2023/07/18 01:43:27;;;;;;;15.77;9.00;;;11.70;99.90;;;;;;5076405;28;20025;-69
2023/07/18 01:45:58;;;;;;;15.13;9.13;;;11.70;99.90;;;;;;5076860;28;20040;-70
2023/07/18 01:48:23;;;;;;;19.25;9.48;;;11.60;99.90;;;;;;5076413;28;20028;-69
2023/07/18 01:50:49;;;;;;;16.35;9.02;;;11.60;99.90;;;;;;5076731;28;20367;-69
2023/07/18 01:53:14;;;;;;;13.93;8.93;;;11.60;99.90;;;;;;5076301;28;20030;-69
2023/07/18 01:55:40;;;;;;;19.00;9.07;;;11.60;99.90;;;;;;5076295;28;20027;-69
2023/07/18 01:58:06;;;;;;;15.75;7.78;;;11.60;99.90;;;;;;5076172;28;20028;-69
2023/07/18 02:00:32;;;;;;;12.88;7.78;;;11.50;99.90;;;;;;5076535;28;20054;-69
2023/07/18 02:02:58;;;;;;;14.60;8.45;;;11.50;99.90;;;;;;5076522;28;20478;-69
2023/07/18 02:05:25;;;;;;;14.35;7.60;;;11.50;99.90;;;;;;5076133;28;20040;-69
2023/07/18 02:07:52;;;;;;;14.48;7.95;;;11.40;99.90;;;;;;5076585;28;20035;-69
2023/07/18 02:10:20;;;;;;;16.00;8.30;;;11.40;99.90;;;;;;5076109;28;20075;-69
2023/07/18 02:12:46;;;;;;;15.00;8.02;;;11.50;99.90;;;;;;5076221;28;20394;-69
2023/07/18 02:15:13;;;;;;;11.98;7.55;;;11.40;99.90;;;;;;5075871;28;20021;-69
2023/07/18 02:17:40;;;;;;;13.38;7.95;;;11.50;99.90;;;;;;5076208;28;20021;-69
2023/07/18 02:20:08;;;;;;;14.68;7.95;;;11.40;99.90;;;;;;5076158;28;20086;-69
2023/07/18 02:22:34;;;;;;;14.23;7.50;;;11.40;99.90;;;;;;5075738;28;20032;-69
2023/07/18 02:25:00;;;;;;;15.43;7.82;;;11.40;99.90;;;;;;5076087;28;20032;-69
2023/07/18 02:27:26;;;;;;;14.05;7.55;;;11.30;99.90;;;;;;5076130;28;20036;-69
2023/07/18 02:29:51;;;;;;;16.42;8.05;;;11.30;99.90;;;;;;5075993;28;20397;-69
2023/07/18 02:32:17;;;;;;;11.88;7.10;;;11.30;99.90;;;;;;5076014;28;20434;-69
2023/07/18 02:34:44;;;;;;;15.13;7.78;;;11.30;99.90;;;;;;5075536;28;20024;-69
2023/07/18 02:37:10;;;;;;;17.90;9.07;;;11.30;99.90;;;;;;5075445;28;20028;-69
2023/07/18 02:39:38;;;;;;;15.52;8.00;;;11.20;99.90;;;;;;5075539;28;20028;-69
2023/07/18 02:42:05;;;;;;;12.20;7.72;;;11.30;99.90;;;;;;5075697;28;20119;-69
2023/07/18 02:44:30;;;;;;;14.43;7.82;;;11.20;99.90;;;;;;5075447;28;20071;-69
2023/07/18 02:46:56;;;;;;;16.33;8.63;;;11.20;99.90;;;;;;5075840;28;20037;-69
2023/07/18 02:49:23;;;;;;;16.23;8.77;;;;;;;;;;5075762;28;20058;-69
2023/07/18 02:51:48;;;;;;;18.90;9.52;;;11.20;99.90;;;;;;5075480;28;20056;-69
2023/07/18 02:54:14;;;;;;;20.02;8.77;;;11.20;99.90;;;;;;5075568;28;20063;-69
2023/07/18 02:56:39;;;;;;;16.27;8.77;;;11.20;99.90;;;;;;5075576;28;20024;-69
2023/07/18 02:59:05;;;;;;;15.63;7.82;;;11.20;99.90;;;;;;5075127;28;20017;-69
2023/07/18 03:01:30;;;;;;;19.05;9.93;;;11.20;99.90;;;;;;5075506;28;20043;-69
2023/07/18 03:03:56;;;;;;;15.95;9.15;;;11.20;99.90;;;;;;5075461;28;20036;-69
2023/07/18 03:06:23;;;;;;;12.60;8.35;;;11.20;99.90;;;;;;5075498;28;20028;-69
2023/07/18 03:08:49;;;;;;;18.48;10.55;;;11.10;99.90;;;;;;5075357;28;20394;-69
2023/07/18 03:11:16;;;;;;;17.88;9.18;;;11.20;99.90;;;;;;5074815;28;20045;-69
2023/07/18 03:13:42;;;;;;;19.80;9.85;;;11.20;99.90;;;;;;5075238;28;20489;-69
2023/07/18 03:16:07;;;;;;;16.70;9.90;;;11.20;99.90;;;;;;5075164;28;20025;-70
2023/07/18 03:18:33;;;;;;;15.88;10.00;;;11.20;99.90;;;;;;5075134;28;20028;-69
2023/07/18 03:20:58;;;;;;;18.13;9.50;;;11.20;99.90;;;;;;5075132;28;20024;-69
2023/07/18 03:23:26;;;;;;;20.52;10.63;;;11.20;99.90;;;;;;5075112;28;20024;-69
2023/07/18 03:25:52;;;;;;;18.00;9.82;;;11.20;99.90;;;;;;5075045;28;20539;-69
2023/07/18 03:28:17;;;;;;;15.52;10.60;;;11.20;99.90;;;;;;5074523;28;20021;-69
2023/07/18 03:30:43;;;;;;;17.50;10.77;;;11.20;99.90;;;;;;5074365;28;20028;-69
2023/07/18 03:33:09;;;;;;;20.23;10.35;;;11.20;99.90;;;;;;5074556;28;20020;-69
2023/07/18 03:35:35;;;;;;;23.02;11.55;;;11.20;99.90;;;;;;5074348;28;20020;-69
2023/07/18 03:38:01;;;;;;;15.90;9.73;;;11.20;99.90;;;;;;5074747;28;20052;-69
2023/07/18 03:40:26;;;;;;;16.73;9.65;;;11.20;99.90;;;;;;5074562;28;20060;-69
2023/07/18 03:42:52;;;;;;;13.77;8.75;;;11.20;99.90;;;;;;5074715;28;20028;-69
2023/07/18 03:45:17;;;;;;;16.75;9.40;;;11.20;99.90;;;;;;5074580;28;20028;-69
2023/07/18 03:47:43;;;;;;;18.77;9.13;;;11.30;99.90;;;;;;5074078;28;20025;-69
2023/07/18 03:50:12;;;;;;;17.33;9.55;;;11.40;99.90;;;;;;5074004;28;20032;-69
2023/07/18 03:52:37;;;;;;;14.38;8.27;;;11.40;99.90;;;;;;5074524;28;20032;-69
2023/07/18 03:55:04;;;;;;;14.60;8.15;;;11.50;99.90;;;;;;5073177;28;20473;-69
2023/07/18 03:57:31;;;;;;;15.55;8.45;;;11.50;99.90;;;;;;5074374;28;20031;-69
2023/07/18 03:59:56;;;;;;;19.80;10.35;;;11.50;99.90;;;;;;5074276;28;20107;-69
2023/07/18 04:02:22;;;;;;;21.40;10.52;;;11.50;99.90;;;;;;5074362;28;20461;-69
2023/07/18 04:04:47;;;;;;;14.73;9.00;;;11.50;99.90;;;;;;5074152;28;20035;-69
2023/07/18 04:07:13;;;;;;;12.40;7.63;;;11.50;99.90;;;;;;5073651;28;20467;-69
2023/07/18 04:09:38;;;;;;;15.50;8.93;;;11.50;99.90;;;;;;5073935;28;20032;-69
2023/07/18 04:12:05;;;;;;;15.27;9.23;;;11.50;99.90;;;;;;5073751;28;20082;-69
2023/07/18 04:14:31;;;;;;;14.30;9.25;;;11.60;99.90;;;;;;5074173;28;20021;-69
2023/07/18 04:16:57;;;;;;;14.32;8.40;;;11.70;99.90;;;;;;5074104;28;20031;-69
2023/07/18 04:19:22;;;;;;;17.13;9.10;;;11.70;99.90;;;;;;5074041;28;20123;-69
2023/07/18 04:21:48;;;;;;;18.83;10.77;;;11.80;99.90;;;;;;5074290;28;20436;-69
2023/07/18 04:24:13;;;;;;;18.95;8.57;;;11.80;99.90;;;;;;5073824;28;20032;-69
2023/07/18 04:26:39;;;;;;;14.10;7.82;;;11.80;99.90;;;;;;5073410;28;20021;-69
2023/07/18 04:29:05;;;;;;;12.95;9.13;;;11.90;99.90;;;;;;5073573;28;20032;-69
2023/07/18 04:31:30;;;;;;;16.45;9.00;;;12.00;99.90;;;;;;5073342;28;20081;-70
2023/07/18 04:33:56;;;;;;;15.90;8.90;;;12.20;99.90;;;;;;5073848;28;20107;-70
2023/07/18 04:36:24;;;;;;;19.65;9.43;;;12.30;99.90;;;;;;5073914;28;20032;-70
2023/07/18 04:38:49;;;;;;;14.80;9.45;;;12.40;99.90;;;;;;5073635;28;20028;-69
2023/07/18 04:41:15;;;;;;;23.40;10.88;;;12.70;99.90;;;;;;5073576;28;20041;-69
2023/07/18 04:43:40;;;;;;;18.45;10.35;;;13.30;99.90;;;;;;5073639;28;20040;-69
2023/07/18 04:46:08;;;;;;;12.88;6.75;;;14.60;99.90;;;;;;5073169;28;20036;-70
2023/07/18 04:48:34;;;;;;;12.55;5.85;;;16.20;99.90;;;;;;5073537;28;20024;-71
2023/07/18 04:51:01;;;;;;;10.88;4.85;;;16.40;99.90;;;;;;5073316;28;20033;-71
2023/07/18 04:53:29;;;;;;;9.00;4.30;;;17.60;99.90;;;;;;5073521;28;20020;-71
2023/07/18 04:55:55;;;;;;;10.30;4.90;;;18.60;53.10;;;;;;5073479;28;20390;-71
2023/07/18 04:58:23;;;;;;;8.85;4.10;;;19.30;1.00;;;;;;5073521;28;20029;-69
2023/07/18 05:00:48;;;;;;;5.95;4.20;;;20.10;1.00;;;;;;5073308;28;20059;-70
2023/07/18 05:03:14;;;;;;;6.85;3.92;;;20.40;1.00;;;;;;5072940;28;20455;-69
2023/07/18 05:05:39;;;;;;;7.43;3.92;;;21.00;1.00;;;;;;5073125;28;20368;-70
2023/07/18 05:08:05;;;;;;;9.57;4.00;;;21.10;99.90;;;;;;5073264;28;20031;-70
2023/07/18 05:10:31;;;;;;;7.07;3.75;;;21.50;1.00;;;;;;5072605;28;20060;-70
2023/07/18 05:12:57;;;;;;;11.43;4.35;;;21.70;99.90;;;;;;5073216;28;20028;-70
2023/07/18 05:15:23;;;;;;;9.18;3.97;;;21.20;99.10;;;;;;5073316;28;20115;-69
2023/07/18 05:17:50;;;;;;;8.52;4.50;;;20.30;99.90;;;;;;5073169;28;20087;-69
2023/07/18 05:20:15;;;;;;;8.10;5.05;;;19.10;99.90;;;;;;5072872;28;20020;-69
2023/07/18 05:22:44;;;;;;;11.38;5.28;;;18.20;99.90;;;;;;5072796;28;20170;-69
2023/07/18 05:25:12;;;;;;;12.00;5.30;;;17.60;1.00;;;;;;5073224;28;20028;-69
2023/07/18 05:27:42;;;;;;;12.80;5.25;;;17.60;1.00;;;;;;5072984;28;20028;-69
2023/07/18 05:30:12;;;;;;;9.73;4.95;;;18.00;1.00;;;;;;5072588;28;20028;-69
2023/07/18 05:32:37;;;;;;;7.18;3.92;;;18.50;1.00;;;;;;5073122;28;20032;-70
2023/07/18 05:35:03;;;;;;;18.77;5.40;;;19.80;1.00;;;;;;5073306;28;20032;-70
2023/07/18 05:37:30;;;;;;;11.73;4.88;;;20.60;1.00;;;;;;5073056;28;20114;-70
2023/07/18 05:39:55;;;;;;;12.52;4.93;;;21.70;99.90;;;;;;5073014;28;20120;-70
2023/07/18 05:42:21;;;;;;;13.07;4.65;;;22.70;99.90;;;;;;5073075;28;20068;-70
2023/07/18 05:44:47;;;;;;;9.23;4.65;;;23.10;99.90;;;;;;5072861;28;20033;-71
2023/07/18 05:47:13;;;;;;;10.77;4.50;;;23.70;1.00;;;;;;5072441;28;20075;-70
2023/07/18 05:49:38;;;;;;;6.93;3.83;;;24.20;1.00;;;;;;5072441;28;20031;-71
2023/07/18 05:52:04;;;;;;;6.25;3.60;;;24.80;99.90;;;;;;5072593;28;20020;-71
2023/07/18 05:54:30;;;;;;;13.55;4.20;;;25.20;99.90;;;;;;5072882;28;20029;-71
2023/07/18 05:56:58;;;;;;;7.70;4.03;;;24.80;99.90;;;;;;5072836;28;20025;-70
2023/07/18 05:59:24;;;;;;;8.13;4.13;;;24.70;99.90;;;;;;5072755;28;20434;-70
2023/07/18 06:01:49;;;;;;;12.18;4.47;;;25.20;1.00;;;;;;5072761;28;20020;-71
2023/07/18 06:04:15;;;;;;;6.20;4.20;;;26.10;1.00;;;;;;5069037;28;20074;-71
2023/07/18 06:06:43;;;;;;;6.97;4.07;;;25.50;99.90;;;;;;5071254;28;20048;-70
2023/07/18 06:09:09;;;;;;;6.03;3.53;;;25.20;1.00;;;;;;5072249;28;20162;-70
2023/07/18 06:11:34;;;;;;;9.63;3.67;;;25.00;99.90;;;;;;5071650;28;20087;-70
2023/07/18 06:14:00;;;;;;;8.20;3.83;;;24.60;1.00;;;;;;5072605;28;20059;-70
2023/07/18 06:16:27;;;;;;;9.63;3.90;;;24.70;3.70;;;;;;5072215;28;20027;-70
2023/07/18 06:18:52;;;;;;;7.15;4.00;;;24.60;1.00;;;;;;5072889;28;20025;-70
2023/07/18 06:21:18;;;;;;;9.15;3.90;;;24.20;99.90;;;;;;5075459;28;20019;-70
2023/07/18 06:23:44;;;;;;;8.80;3.67;;;25.00;1.00;;;;;;5074886;28;20035;-70
2023/07/18 06:26:09;;;;;;;9.30;3.45;;;24.80;23.50;;;;;;5075738;28;20035;-70
2023/07/18 06:28:35;;;;;;;10.70;3.78;;;25.00;1.00;;;;;;5075334;28;20378;-70
2023/07/18 06:31:01;;;;;;;6.00;3.72;;;25.00;99.90;;;;;;5084734;28;20067;-70
2023/07/18 06:33:26;;;;;;;9.68;3.85;;;24.20;1.00;;;;;;5085986;28;20031;-70
2023/07/18 06:35:52;;;;;;;5.55;3.38;;;24.10;13.40;;;;;;5075568;28;20029;-71
2023/07/18 06:38:18;;;;;;;9.35;3.95;;;24.40;49.20;;;;;;5075467;28;20035;-71
2023/07/18 06:40:46;;;;;;;12.50;4.18;;;24.70;1.00;;;;;;5075335;28;20025;-71
2023/07/18 06:43:12;;;;;;;8.65;3.78;;;24.60;1.00;;;;;;5075473;28;20028;-70
2023/07/18 06:45:38;;;;;;;9.65;3.90;;;24.90;1.00;;;;;;5075016;28;20040;-70
2023/07/18 06:48:05;;;;;;;8.68;4.38;;;25.10;1.00;;;;;;5074996;28;20031;-70
2023/07/18 06:50:30;;;;;;;7.43;3.60;;;24.90;1.00;;;;;;5075097;28;20071;-70
2023/07/18 06:52:56;;;;;;;6.45;3.45;;;25.70;99.90;;;;;;5074569;28;20482;-70
2023/07/18 06:55:22;;;;;;;8.05;3.40;;;25.50;99.90;;;;;;5073005;28;20028;-71
2023/07/18 06:57:48;;;;;;;6.30;3.47;;;26.00;99.90;;;;;;5078208;28;20039;-72
2023/07/18 07:00:14;;;;;;;6.40;3.40;;;26.00;99.90;;;;;;5079383;28;20447;-72
2023/07/18 07:02:40;;;;;;;7.18;3.40;;;25.20;99.90;;;;;;5076400;28;20501;-73
2023/07/18 07:05:06;;;;;;;6.53;3.53;;;25.80;99.90;;;;;;5075900;28;20025;-74
2023/07/18 07:07:32;;;;;;;10.27;3.60;;;25.50;99.90;;;;;;5075250;28;20029;-73
2023/07/18 07:09:57;;;;;;;9.05;3.30;;;25.50;99.90;;;;;;5074904;28;20044;-73
2023/07/18 07:12:23;;;;;;;6.60;2.88;;;26.30;99.90;;;;;;5074912;28;20021;-73
2023/07/18 07:14:48;;;;;;;5.85;3.10;;;27.10;91.10;;;;;;5074795;28;20086;-71
2023/07/18 07:17:14;;;;;;;6.55;3.25;;;25.90;99.90;;;;;;5074986;28;20028;-73
2023/07/18 07:19:39;;;;;;;6.88;3.15;;;25.50;99.90;;;;;;5074665;28;20086;-73
2023/07/18 07:22:05;;;;;;;4.90;3.15;;;25.50;99.90;;;;;;5074857;28;20478;-73
2023/07/18 07:24:31;;;;;;;4.93;3.33;;;26.10;99.90;;;;;;5074690;28;20040;-72
2023/07/18 07:26:56;;;;;;;5.93;3.10;;;26.00;99.90;;;;;;5074800;28;20039;-73
2023/07/18 07:29:22;;;;;;;5.80;3.17;;;25.90;99.90;;;;;;5073039;28;20075;-73
2023/07/18 07:31:47;;;;;;;7.10;3.28;;;26.00;99.90;;;;;;5073831;28;20032;-73
2023/07/18 07:34:13;;;;;;;8.88;3.25;;;25.80;99.90;;;;;;5073609;28;20032;-73
2023/07/18 07:36:38;;;;;;;7.25;3.60;;;25.40;99.90;;;;;;5074244;28;20035;-74
2023/07/18 07:39:04;;;;;;;6.07;2.95;;;25.30;99.90;;;;;;5074765;28;20095;-74
2023/07/18 07:41:30;;;;;;;7.28;3.25;;;25.80;99.90;;;;;;5074497;28;20045;-73
2023/07/18 07:43:55;;;;;;;6.60;3.58;;;25.60;99.90;;;;;;5074273;28;20107;-74
2023/07/18 07:46:21;;;;;;;7.18;3.25;;;26.20;99.90;;;;;;5073903;28;20038;-73
2023/07/18 07:48:46;;;;;;;7.32;3.22;;;25.40;99.90;;;;;;5074655;28;20494;-73
2023/07/18 07:51:15;;;;;;;8.77;3.35;;;25.00;99.90;;;;;;5073668;28;20020;-73
2023/07/18 07:53:41;;;;;;;6.32;2.85;;;25.20;99.90;;;;;;5074280;28;20031;-74
2023/07/18 07:56:07;;;;;;;4.97;2.72;;;25.40;99.90;;;;;;5074411;28;20048;-74
2023/07/18 07:58:32;;;;;;;4.32;2.67;;;26.20;99.90;;;;;;5074361;28;20064;-72
2023/07/18 08:00:59;;;;;;;7.40;2.85;;;26.90;34.10;;;;;;5073414;28;20123;-72
2023/07/18 08:03:24;;;;;;;4.82;3.00;;;26.70;43.40;;;;;;5073447;28;20043;-72
2023/07/18 08:05:50;;;;;;;5.13;2.58;;;26.40;62.30;;;;;;5072806;28;20040;-73
2023/07/18 08:08:17;;;;;;;6.10;2.50;;;26.30;68.40;;;;;;5072930;28;20016;-73
2023/07/18 08:10:42;;;;;;;4.75;2.25;;;26.00;25.50;;;;;;5073348;28;20051;-74
2023/07/18 08:13:08;;;;;;;6.65;2.50;;;25.70;22.60;;;;;;5072952;28;20111;-73
2023/07/18 08:15:34;;;;;;;5.38;2.40;;;25.60;24.80;;;;;;5074083;28;20024;-74
2023/07/18 08:18:00;;;;;;;4.95;2.13;;;25.40;27.70;;;;;;5073867;28;20128;-73
2023/07/18 08:20:25;;;;;;;4.93;1.63;;;25.20;52.50;;;;;;5072681;28;20078;-75
2023/07/18 08:22:51;;;;;;;5.47;2.22;;;24.90;25.50;;;;;;5072923;28;20390;-72
2023/07/18 08:25:17;;;;;;;3.10;1.95;;;24.90;8.40;;;;;;5073135;28;20024;-72
2023/07/18 08:27:43;;;;;;;3.85;1.92;;;25.20;22.80;;;;;;5070586;28;20025;-73
2023/07/18 08:30:09;;;;;;;5.68;2.20;;;26.30;9.80;;;;;;5073040;28;20501;-74
2023/07/18 08:32:35;;;;;;;2.80;1.90;;;26.70;1.00;;;;;;5072881;28;20371;-72
2023/07/18 08:35:00;;;;;;;3.72;2.10;;;26.30;1.00;;;;;;5072748;28;20031;-72
2023/07/18 08:37:26;;;;;;;6.70;2.50;;;25.10;1.00;;;;;;5072758;28;20493;-71
2023/07/18 08:39:51;;;;;;;3.38;2.00;;;25.30;1.00;;;;;;5072276;28;20073;-72
2023/07/18 08:42:24;;;;;;;5.22;2.28;;;25.20;5.20;;;;;;5072280;28;20036;-71
2023/07/18 08:44:52;;;;;;;5.28;2.15;;;25.30;5.70;;;;;;5072991;28;20122;-72
2023/07/18 08:47:18;;;;;;;4.18;2.40;;;25.20;11.70;;;;;;5073449;28;20540;-72
2023/07/18 08:49:43;;;;;;;5.85;2.50;;;25.30;20.20;;;;;;5073326;28;20032;-71
2023/07/18 08:52:09;;;;;;;5.82;2.20;;;25.00;18.50;;;;;;5073119;28;20035;-73
2023/07/18 08:54:35;;;;;;;5.20;2.63;;;25.50;80.30;;;;;;5073223;28;20025;-73
2023/07/18 08:57:03;;;;;;;4.57;2.17;;;26.50;17.50;;;;;;5073092;28;20068;-72
2023/07/18 08:59:29;;;;;;;5.63;2.00;;;25.90;1.00;;;;;;5073075;28;20028;-72
2023/07/18 09:01:54;;;;;;;6.10;2.30;;;26.60;1.00;;;;;;5073541;28;20020;-68
2023/07/18 09:04:20;;;;;;;5.93;2.33;;;25.60;1.00;;;;;;5072846;28;20105;-70
2023/07/18 09:06:48;;;;;;;4.05;2.17;;;25.40;1.00;;;;;;5073338;28;20433;-69
2023/07/18 09:09:16;;;;;;;4.35;2.10;;;25.90;1.00;;;;;;5072490;28;20505;-69
2023/07/18 09:11:55;;;;;;;3.90;1.95;;;25.80;1.00;;;;;;5072753;28;20048;-68
2023/07/18 09:14:27;;;;;;;5.90;2.00;;;25.20;1.00;;;;;;5073080;28;20032;-68
2023/07/18 09:16:55;;;;;;;4.53;2.00;;;25.50;1.00;;;;;;5073020;28;20052;-68
2023/07/18 09:22:16;;;;;;;5.22;1.90;;;26.80;1.00;;;;;;5110784;27;20426;-70
2023/07/18 09:24:42;;;;;;;3.75;1.80;;;27.00;1.00;;;;;;5110530;28;20422;-71
2023/07/18 09:27:17;;;;;;;6.13;1.73;;;26.80;1.00;;;;;;5110843;28;20089;-71
2023/07/18 09:29:45;;;;;;;4.47;1.90;;;26.20;1.00;;;;;;5111092;28;20039;-71
2023/07/18 09:32:16;;;;;;;4.88;2.00;;;26.50;1.00;;;;;;5110632;28;20436;-71
2023/07/18 09:34:52;;;;;;;6.32;1.75;;;27.00;1.00;;;;;;5110667;28;20024;-71
2023/07/18 09:37:18;;;;;;;6.20;2.30;;;27.30;1.00;;;;;;5110289;28;20586;-71
2023/07/18 09:39:46;;;;;;;6.65;2.15;;;26.80;1.00;;;;;;5090027;28;20036;-71
2023/07/18 09:42:12;;;;;;;3.55;2.00;;;26.70;1.00;;;;;;5090266;28;20032;-71
2023/07/18 09:44:40;;;;;;;3.42;1.70;;;26.90;1.00;;;;;;5090070;28;20024;-71
2023/07/18 09:47:06;;;;;;;6.20;1.88;;;27.30;1.00;;;;;;5090242;28;20036;-72
2023/07/18 09:49:33;;;;;;;6.32;1.80;;;27.00;1.00;;;;;;5090395;28;20020;-72
2023/07/18 09:52:04;;;;;;;7.38;1.38;;;26.30;1.00;;;;;;5090025;28;20135;-72
2023/07/18 09:54:32;;;;;;;4.22;1.45;;;26.50;1.00;;;;;;5089247;28;20036;-72
2023/07/18 09:57:02;;;;;;;4.65;1.48;;;26.80;1.00;;;;;;5089962;28;20067;-72
2023/07/18 09:59:28;;;;;;;4.68;1.70;;;27.60;1.00;;;;;;5090407;28;20024;-72
2023/07/18 10:01:55;;;;;;;2.90;1.40;;;27.20;1.00;;;;;;5089441;28;20035;-72
2023/07/18 10:04:22;;;;;;;6.15;1.65;;;26.10;1.00;;;;;;5090024;28;20028;-71
2023/07/18 10:06:49;;;;;;;5.07;1.50;;;26.00;1.00;;;;;;5090074;28;20074;-71
2023/07/18 10:09:16;;;;;;;3.22;1.58;;;25.90;1.00;;;;;;5089717;28;20032;-71
2023/07/18 10:14:57;;;;;;;5.47;1.42;;;27.10;1.00;;;;;;5105446;27;20311;-72
2023/07/18 10:17:28;;;;;;;4.88;1.50;;;26.40;1.00;;;;;;5090330;28;20047;-72
2023/07/18 10:19:54;;;;;;;3.05;1.30;;;25.90;1.00;;;;;;5092716;28;20029;-72
2023/07/18 10:22:25;;;;;;;2.15;1.40;;;25.20;1.00;;;;;;5104034;28;20367;-72
2023/07/18 10:24:51;;;;;;;2.50;1.40;;;24.90;1.00;;;;;;5109172;28;20118;-72
2023/07/18 10:27:17;;;;;;;3.80;1.52;;;25.20;1.00;;;;;;5110959;28;20512;-72
2023/07/18 10:30:08;;;;;;;3.60;1.40;;;26.10;1.00;;;;;;5102447;28;20090;-72
2023/07/18 10:32:36;;;;;;;3.47;1.35;;;26.20;1.00;;;;;;5097675;28;20119;-72
2023/07/18 10:35:06;;;;;;;3.72;1.88;;;25.70;1.00;;;;;;5094412;28;20032;-71
2023/07/18 10:37:32;;;;;;;4.38;1.92;;;25.00;1.00;;;;;;5092178;28;20026;-71
2023/07/18 10:39:58;;;;;;;3.42;1.60;;;24.50;1.00;;;;;;5091472;28;20024;-71
2023/07/18 10:42:28;;;;;;;5.80;2.30;;;24.80;1.00;;;;;;5104375;28;20048;-71
2023/07/18 10:45:09;;;;;;;2.15;1.50;;;26.10;1.00;;;;;;5096827;28;20054;-72
2023/07/18 10:47:37;;;;;;;3.38;1.20;;;26.80;1.00;;;;;;5102401;28;20546;-70
2023/07/18 10:50:04;;;;;;;4.47;1.50;;;27.00;1.00;;;;;;5101379;28;20028;-69
2023/07/18 10:52:30;;;;;;;4.68;1.70;;;26.40;1.00;;;;;;5088553;28;20078;-71
2023/07/18 10:54:57;;;;;;;6.60;1.65;;;25.70;1.00;;;;;;5093897;28;20046;-70
2023/07/18 10:57:28;;;;;;;8.45;2.00;;;24.80;1.00;;;;;;5089613;28;20107;-70
2023/07/18 10:59:54;;;;;;;4.35;2.00;;;24.50;1.00;;;;;;5091450;28;20116;-71
2023/07/18 11:02:21;;;;;;;4.78;1.50;;;24.60;1.00;;;;;;5089656;28;20032;-72
2023/07/18 11:04:47;;;;;;;4.68;1.95;;;24.50;1.00;;;;;;5090011;28;20493;-71
2023/07/18 11:07:13;;;;;;;4.20;1.73;;;24.70;1.00;;;;;;5093313;28;20031;-71
2023/07/18 11:09:40;;;;;;;3.60;1.38;;;24.40;1.00;;;;;;5090437;28;20028;-71
2023/07/18 11:12:07;;;;;;;7.50;2.15;;;24.20;1.00;;;;;;5100802;28;20027;-71
2023/07/18 11:14:40;;;;;;;2.65;1.65;;;23.70;1.00;;;;;;5097650;28;20044;-71
2023/07/18 11:17:13;;;;;;;;;;;23.70;1.00;;;;;;5107884;28;20135;-71
2023/07/18 11:19:40;;;;;;;4.30;1.75;;;23.60;1.00;;;;;;5110054;28;19904;-71
2023/07/18 11:22:07;;;;;;;4.15;1.60;;;23.70;1.00;;;;;;5108111;28;20122;-72
2023/07/18 11:24:34;;;;;;;2.10;1.65;;;23.70;1.00;;;;;;5104606;28;20078;-71
2023/07/18 11:29:57;;;;;;;5.07;2.05;;;23.90;1.00;;;;;;5077128;22;20473;-74
2023/07/18 11:32:40;;;;;;;4.93;2.33;;;23.90;1.00;;;;;;5070522;28;20116;-74
2023/07/18 11:35:11;;;;;;;5.45;1.90;;;23.80;1.00;;;;;;5069790;28;20040;-75
2023/07/18 11:37:41;;;;;;;3.00;1.95;;;23.70;1.00;;;;;;5070128;28;20033;-74
2023/07/18 11:40:08;;;;;;;3.88;1.88;;;23.60;1.00;;;;;;5070198;28;20032;-75
2023/07/18 11:42:47;;;;;;;5.40;2.10;;;23.70;1.00;;;;;;5070020;28;20100;-74
2023/07/18 11:45:16;;;;;;;3.13;2.22;;;23.70;1.00;;;;;;5069431;28;20490;-74
2023/07/18 11:47:44;;;;;;;2.10;1.60;;;23.60;1.00;;;;;;5069508;28;20024;-74
2023/07/18 11:50:11;;;;;;;3.63;1.80;;;24.10;1.00;;;;;;5070419;28;20033;-74
2023/07/18 11:52:36;;;;;;;4.63;1.75;;;24.60;1.00;;;;;;5069548;28;20060;-74
2023/07/18 11:55:02;;;;;;;3.92;1.92;;;25.00;1.00;;;;;;5070084;28;20056;-74
2023/07/18 11:57:28;;;;;;;3.67;1.85;;;25.20;1.00;;;;;;5069916;28;20064;-74
2023/07/18 11:59:54;;;;;;;4.60;2.03;;;24.50;1.00;;;;;;5069765;28;20398;-74
2023/07/18 12:02:19;;;;;;;3.42;1.83;;;24.40;1.00;;;;;;5069885;28;20025;-74
2023/07/18 12:04:45;;;;;;;4.47;2.67;;;25.20;1.00;;;;;;5069558;28;20060;-74
2023/07/18 12:07:11;;;;;;;4.07;1.90;;;25.80;1.00;;;;;;5090108;28;20032;-75
2023/07/18 12:09:36;;;;;;;6.82;2.63;;;25.60;1.00;;;;;;5078211;28;20017;-75
2023/07/18 12:12:03;;;;;;;3.65;1.98;;;25.00;1.00;;;;;;5070010;28;20024;-74
2023/07/18 12:14:30;;;;;;;4.47;2.08;;;25.00;1.00;;;;;;5068805;28;20071;-74
2023/07/18 12:16:55;;;;;;;3.78;2.20;;;25.50;1.00;;;;;;5068889;28;20021;-74
2023/07/18 12:19:21;;;;;;;3.95;2.05;;;25.60;1.00;;;;;;5080450;28;20393;-75
2023/07/18 12:21:48;;;;;;;4.70;2.25;;;25.70;1.00;;;;;;5082068;28;20546;-74
2023/07/18 12:24:14;;;;;;;2.38;1.77;;;24.80;1.00;;;;;;5069307;28;20391;-74
2023/07/18 12:26:39;;;;;;;3.45;2.10;;;24.40;1.00;;;;;;5069552;28;20028;-74
2023/07/18 12:29:05;;;;;;;6.57;2.00;;;24.60;1.00;;;;;;5069236;28;20036;-75
2023/07/18 12:31:33;;;;;;;4.88;1.95;;;25.20;1.00;;;;;;5069464;28;20111;-74
2023/07/18 12:33:59;;;;;;;4.20;2.00;;;25.20;1.00;;;;;;5080986;28;20028;-74
2023/07/18 12:36:24;;;;;;;3.13;2.15;;;25.00;1.00;;;;;;5089173;28;20021;-74
2023/07/18 12:38:50;;;;;;;7.78;2.40;;;24.70;1.00;;;;;;5071328;28;20033;-74
2023/07/18 12:41:17;;;;;;;5.65;2.00;;;24.50;1.00;;;;;;5055368;28;20040;-75
2023/07/18 12:43:42;;;;;;;6.18;2.10;;;25.20;1.00;;;;;;5059455;28;20031;-75
2023/07/18 12:46:08;;;;;;;4.47;2.30;;;25.50;1.00;;;;;;5075958;28;20111;-76
2023/07/18 12:48:34;;;;;;;5.75;2.28;;;25.10;1.00;;;;;;5064968;28;20493;-75
2023/07/18 12:51:01;;;;;;;4.88;2.20;;;24.80;1.00;;;;;;5055809;28;20483;-75